Time;durP1;ratioP1;P1;durP2;ratioP2;P2;SDS_P1;SDS_P2;PMS_P1;PMS_P2;Temp;Humidity;BMP_temperature;BMP_pressure;BME280_temperature;BME280_humidity;BME280_pressure;Samples;Min_cycle;Max_cycle;Signal;HPM_P1;HPM_P2
2023/05/30 00:00:50;;;;;;;11.43;2.63;;;;;;;9.97;93.42;102319.91;5039435;28;20196;-45
2023/05/30 00:03:17;;;;;;;11.55;2.83;;;;;;;9.90;93.47;102311.06;5045212;28;20175;-45
2023/05/30 00:05:43;;;;;;;10.77;2.65;;;;;;;9.86;93.27;102317.34;5035896;28;20212;-45
2023/05/30 00:08:08;;;;;;;11.00;2.95;;;;;;;9.89;93.58;102305.72;5037474;28;20234;-42
2023/05/30 00:10:34;;;;;;;12.57;2.80;;;;;;;9.90;93.73;102304.78;5034898;28;20196;-46
2023/05/30 00:12:59;;;;;;;9.25;2.70;;;;;;;9.80;94.06;102304.03;5030291;28;20603;-45
2023/05/30 00:15:26;;;;;;;10.55;3.28;;;;;;;9.76;94.36;102317.47;5017761;28;20257;-45
2023/05/30 00:17:52;;;;;;;9.02;2.75;;;;;;;9.69;94.59;102306.81;5034751;28;20196;-47
2023/05/30 00:20:19;;;;;;;11.40;2.90;;;;;;;9.69;95.05;102316.66;5030807;28;20234;-45
2023/05/30 00:22:45;;;;;;;12.73;3.25;;;;;;;9.58;95.63;102322.09;5022744;28;20169;-44
2023/05/30 00:25:10;;;;;;;10.18;2.85;;;;;;;9.72;96.05;102318.41;5016428;28;20203;-43
2023/05/30 00:27:36;;;;;;;12.77;2.83;;;;;;;9.93;96.02;102323.53;5036281;28;20229;-44
2023/05/30 00:30:02;;;;;;;10.20;3.22;;;;;;;9.77;96.05;102327.25;5039579;28;20178;-45
2023/05/30 00:32:32;;;;;;;15.77;2.95;;;;;;;9.75;96.01;102326.38;5025022;28;20239;-45
2023/05/30 00:34:58;;;;;;;8.40;2.85;;;;;;;9.53;96.64;102331.06;5020554;28;20238;-45
2023/05/30 00:37:24;;;;;;;14.48;3.38;;;;;;;9.51;96.95;102322.16;5033861;28;20183;-45
2023/05/30 00:39:50;;;;;;;11.10;2.95;;;;;;;9.61;97.14;102322.06;5036579;28;20245;-45
2023/05/30 00:42:16;;;;;;;18.95;3.40;;;;;;;9.38;97.11;102330.34;5033098;28;20172;-46
2023/05/30 00:44:42;;;;;;;12.52;3.17;;;;;;;9.39;97.68;102328.53;5032026;28;20759;-46
2023/05/30 00:47:08;;;;;;;17.30;3.05;;;;;;;9.27;98.26;102324.16;5029838;28;20200;-46
2023/05/30 00:49:34;;;;;;;14.88;3.38;;;;;;;9.21;99.39;102337.63;5052182;28;20242;-44
2023/05/30 00:52:00;;;;;;;13.32;3.17;;;;;;;9.25;99.68;102339.38;5024780;28;20197;-46
2023/05/30 00:54:25;;;;;;;13.90;3.55;;;;;;;9.15;100.00;102346.56;5024540;28;20239;-45
2023/05/30 00:56:51;;;;;;;11.73;2.80;;;;;;;9.29;100.00;102346.44;5038405;28;20219;-44
2023/05/30 00:59:20;;;;;;;12.93;3.20;;;;;;;9.30;100.00;102344.66;5031934;28;20591;-43
2023/05/30 01:01:45;;;;;;;19.75;3.50;;;;;;;9.34;100.00;102338.41;5025363;28;20171;-46
2023/05/30 01:04:11;;;;;;;13.65;3.15;;;;;;;9.37;100.00;102335.69;5026412;28;20717;-46
2023/05/30 01:06:40;;;;;;;21.63;4.30;;;;;;;9.37;100.00;102336.56;5033106;28;20189;-46
2023/05/30 01:09:06;;;;;;;17.95;3.63;;;;;;;9.32;100.00;102338.41;5035219;28;20659;-45
2023/05/30 01:12:00;;;;;;;13.18;3.40;;;;;;;9.33;100.00;102334.81;5021735;28;20239;-46
2023/05/30 01:14:43;;;;;;;12.80;3.88;;;;;;;9.21;100.00;102329.59;5045502;28;20203;-43
2023/05/30 01:17:12;;;;;;;17.50;3.97;;;;;;;9.15;100.00;102332.31;5039701;28;20266;-46
2023/05/30 01:19:50;;;;;;;14.48;3.50;;;;;;;9.20;100.00;102326.00;5034862;28;20198;-45
2023/05/30 01:22:30;;;;;;;16.02;3.60;;;;;;;9.19;100.00;102326.91;5036966;28;20202;-46
2023/05/30 01:25:08;;;;;;;13.05;3.33;;;;;;;9.01;100.00;102330.63;5029722;28;20203;-44
2023/05/30 01:27:45;;;;;;;12.18;3.05;;;;;;;9.08;100.00;102329.69;5046886;28;20246;-45
2023/05/30 01:30:13;;;;;;;11.15;3.35;;;;;;;9.05;100.00;102334.16;5025506;28;20177;-46
2023/05/30 01:32:39;;;;;;;11.07;3.30;;;;;;;9.20;100.00;102334.03;5033238;28;20223;-45
2023/05/30 01:35:04;;;;;;;15.38;3.65;;;;;;;9.02;100.00;102329.72;5035714;28;20207;-47
2023/05/30 01:37:30;;;;;;;13.55;4.38;;;;;;;8.93;100.00;102343.16;5029618;28;20179;-45
2023/05/30 01:39:56;;;;;;;13.23;4.28;;;;;;;9.05;100.00;102350.19;5038182;28;20249;-45
2023/05/30 01:42:24;;;;;;;11.73;2.88;;;;;;;9.06;100.00;102344.84;5033195;28;20658;-45
2023/05/30 01:44:52;;;;;;;10.57;3.38;;;;;;;9.15;100.00;102343.88;5033314;28;20222;-45
2023/05/30 01:47:31;;;;;;;14.30;4.05;;;;;;;9.15;100.00;102343.88;5031025;28;20524;-46
2023/05/30 01:50:17;;;;;;;15.90;3.75;;;;;;;8.85;100.00;102347.66;5023733;28;20219;-44
2023/05/30 01:52:50;;;;;;;16.23;3.55;;;;;;;9.05;100.00;102353.78;5036039;28;20203;-45
2023/05/30 01:55:18;;;;;;;15.57;4.13;;;;;;;8.89;100.00;102360.13;5027848;28;20212;-46
2023/05/30 01:57:47;;;;;;;22.25;4.47;;;;;;;8.97;100.00;102365.44;5018390;28;20267;-45
2023/05/30 02:00:15;;;;;;;16.48;4.50;;;;;;;8.96;100.00;102361.84;5041018;28;20192;-46
2023/05/30 02:02:43;;;;;;;23.55;4.53;;;;;;;8.70;100.00;102358.44;5035651;28;20671;-46
2023/05/30 02:05:09;;;;;;;12.60;4.15;;;;;;;8.82;100.00;102372.63;5032618;28;20196;-46
2023/05/30 02:07:35;;;;;;;21.48;3.97;;;;;;;8.89;100.00;102369.94;5019669;28;20529;-45
2023/05/30 02:10:01;;;;;;;15.00;4.00;;;;;;;8.84;100.00;102362.81;5021747;28;20185;-48
2023/05/30 02:12:26;;;;;;;12.63;3.47;;;;;;;8.92;100.00;102359.19;5047480;28;20218;-48
2023/05/30 02:14:54;;;;;;;16.40;4.15;;;;;;;8.84;100.00;102365.50;5028394;28;20538;-48
2023/05/30 02:17:25;;;;;;;13.73;3.88;;;;;;;8.86;100.00;102368.16;5029604;28;20179;-46
2023/05/30 02:19:51;;;;;;;14.35;3.67;;;;;;;8.94;100.00;102374.31;5021570;28;20188;-48
2023/05/30 02:22:20;;;;;;;17.17;3.85;;;;;;;8.83;100.00;102378.84;5037401;28;20176;-47
2023/05/30 02:24:46;;;;;;;13.05;4.03;;;;;;;9.02;100.00;102376.97;5026644;28;20314;-47
2023/05/30 02:27:12;;;;;;;16.20;4.07;;;;;;;8.97;100.00;102392.16;5022722;28;20171;-48
2023/05/30 02:29:38;;;;;;;14.38;3.70;;;;;;;9.07;100.00;102384.06;5032678;28;20195;-48
2023/05/30 02:32:04;;;;;;;12.20;3.92;;;;;;;8.98;100.00;102385.91;5034161;28;20278;-45
2023/05/30 02:34:30;;;;;;;14.10;3.72;;;;;;;9.06;100.00;102379.59;5031083;28;20233;-45
2023/05/30 02:36:57;;;;;;;16.17;4.85;;;;;;;9.02;100.00;102390.34;5024478;28;20191;-47
2023/05/30 02:39:23;;;;;;;15.25;3.85;;;;;;;9.11;100.00;102389.38;5040264;28;20579;-45
2023/05/30 02:41:48;;;;;;;14.80;4.28;;;;;;;9.03;100.00;102381.41;5032399;28;20634;-46
2023/05/30 02:44:14;;;;;;;18.83;4.72;;;;;;;8.93;100.00;102385.06;5028594;28;20196;-45
2023/05/30 02:46:41;;;;;;;12.73;3.33;;;;;;;9.03;100.00;102378.72;5028067;28;20651;-46
2023/05/30 02:49:06;;;;;;;12.40;4.28;;;;;;;9.05;100.00;102388.53;5033459;28;20183;-46
2023/05/30 02:51:32;;;;;;;18.40;4.78;;;;;;;9.10;100.00;102387.63;5038255;28;20299;-47
2023/05/30 02:53:58;;;;;;;15.63;3.92;;;;;;;9.07;100.00;102394.75;5031632;28;20270;-46
2023/05/30 02:56:37;;;;;;;18.23;4.50;;;;;;;9.18;100.00;102404.47;5018760;28;20610;-47
2023/05/30 02:59:22;;;;;;;16.38;4.90;;;;;;;9.08;100.00;102399.19;5033341;28;20570;-46
2023/05/30 03:01:58;;;;;;;15.85;4.43;;;;;;;9.21;100.00;102397.31;5035508;28;20207;-46
2023/05/30 03:04:23;;;;;;;12.95;4.18;;;;;;;9.30;100.00;102403.50;5028742;28;20619;-45
2023/05/30 03:06:50;;;;;;;20.98;4.75;;;;;;;9.32;100.00;102393.69;5034676;28;20643;-46
2023/05/30 03:09:21;;;;;;;17.17;3.90;;;;;;;9.41;100.00;102391.81;5040582;28;20186;-46
2023/05/30 03:11:48;;;;;;;14.93;4.35;;;;;;;9.40;100.00;102394.50;5045034;28;20709;-46
2023/05/30 03:14:15;;;;;;;23.13;5.55;;;;;;;9.35;100.00;102405.25;5029153;28;20187;-45
2023/05/30 03:16:42;;;;;;;15.82;3.95;;;;;;;9.38;100.00;102396.28;5030538;28;20172;-46
2023/05/30 03:19:08;;;;;;;18.08;4.45;;;;;;;9.44;100.00;102396.25;5035003;28;20187;-45
2023/05/30 03:21:34;;;;;;;16.45;4.60;;;;;;;9.54;100.00;102402.44;5034695;28;20188;-45
2023/05/30 03:24:00;;;;;;;18.27;4.80;;;;;;;9.45;100.00;102411.41;5025047;28;20550;-45
2023/05/30 03:26:30;;;;;;;20.60;5.20;;;;;;;9.43;100.00;102406.06;5043772;28;20266;-44
2023/05/30 03:28:55;;;;;;;16.10;5.07;;;;;;;9.47;100.00;102396.25;5031664;28;20268;-45
2023/05/30 03:31:23;;;;;;;14.38;4.78;;;;;;;9.55;100.00;102405.06;5015115;28;20181;-45
2023/05/30 03:33:49;;;;;;;12.90;5.00;;;;;;;9.53;100.00;102416.69;5027149;28;20194;-46
2023/05/30 03:36:17;;;;;;;14.60;4.85;;;;;;;9.54;100.00;102408.66;5040646;28;20211;-46
2023/05/30 03:38:43;;;;;;;15.32;4.72;;;;;;;9.70;100.00;102401.38;5035775;28;20662;-46
2023/05/30 03:41:09;;;;;;;23.98;5.22;;;;;;;9.69;100.00;102407.66;5023275;28;20516;-47
2023/05/30 03:43:34;;;;;;;21.08;4.35;;;;;;;9.53;100.00;102406.88;5021142;28;20207;-47
2023/05/30 03:46:00;;;;;;;22.33;5.43;;;;;;;9.53;100.00;102411.34;5037129;28;20206;-47
2023/05/30 03:48:25;;;;;;;19.77;5.07;;;;;;;9.69;100.00;102418.34;5036418;28;20176;-47
2023/05/30 03:50:50;;;;;;;25.75;5.50;;;;;;;9.71;100.00;102405.84;5024312;28;20183;-46
2023/05/30 03:53:16;;;;;;;12.25;4.32;;;;;;;9.82;100.00;102406.63;5022396;28;20260;-47
2023/05/30 03:55:41;;;;;;;16.60;4.53;;;;;;;9.70;100.00;102406.72;5034626;28;20199;-45
2023/05/30 03:58:07;;;;;;;15.40;4.95;;;;;;;9.76;100.00;102412.03;5032999;28;20184;-44
2023/05/30 04:00:32;;;;;;;17.23;4.68;;;;;;;9.74;100.00;102424.53;5024301;28;20250;-45
2023/05/30 04:02:59;;;;;;;15.15;5.10;;;;;;;9.83;100.00;102428.91;5033780;28;20271;-44
2023/05/30 04:05:26;;;;;;;13.20;4.35;;;;;;;9.90;100.00;102431.53;5021848;28;20199;-45
2023/05/30 04:07:52;;;;;;;16.13;4.35;;;;;;;9.84;100.00;102428.03;5037167;28;20613;-47
2023/05/30 04:10:17;;;;;;;21.75;4.60;;;;;;;9.86;100.00;102426.19;5023184;28;20195;-46
2023/05/30 04:12:43;;;;;;;13.50;4.80;;;;;;;9.88;100.00;102419.94;5026749;28;20196;-47
2023/05/30 04:15:09;;;;;;;18.85;5.07;;;;;;;9.93;100.00;102422.59;5035338;28;20212;-46
2023/05/30 04:17:36;;;;;;;15.70;4.80;;;;;;;9.88;100.00;102422.63;5043215;28;20240;-46
2023/05/30 04:20:04;;;;;;;12.60;4.05;;;;;;;10.03;100.00;102415.31;5025151;28;20515;-44
2023/05/30 04:22:32;;;;;;;16.02;4.63;;;;;;;10.16;100.00;102421.44;5035009;28;20212;-44
2023/05/30 04:24:58;;;;;;;18.13;5.00;;;;;;;10.11;100.00;102426.84;5034923;28;20206;-46
2023/05/30 04:27:24;;;;;;;14.55;4.30;;;;;;;10.20;100.00;102437.47;5063332;28;20183;-44
2023/05/30 04:29:50;;;;;;;18.42;4.15;;;;;;;10.11;100.00;102435.78;5031439;28;20183;-47
2023/05/30 04:32:17;;;;;;;18.15;4.43;;;;;;;9.99;100.00;102433.22;5028177;28;20231;-45
2023/05/30 04:34:43;;;;;;;16.58;4.57;;;;;;;10.02;100.00;102440.34;5026581;28;20690;-45
2023/05/30 04:37:11;;;;;;;17.48;4.78;;;;;;;10.05;100.00;102430.47;5052211;28;20652;-45
2023/05/30 04:39:38;;;;;;;14.75;4.47;;;;;;;10.05;100.00;102442.97;5016493;28;20196;-45
2023/05/30 04:42:05;;;;;;;14.88;4.47;;;;;;;9.92;100.00;102430.63;5041847;28;20186;-46
2023/05/30 04:44:37;;;;;;;16.73;4.55;;;;;;;9.99;100.00;102424.28;5044273;28;20195;-44
2023/05/30 04:47:10;;;;;;;16.83;4.25;;;;;;;9.97;100.00;102427.00;5036330;28;20187;-45
2023/05/30 04:49:41;;;;;;;15.02;4.55;;;;;;;9.98;100.00;102439.47;5030177;28;20173;-44
2023/05/30 04:52:07;;;;;;;18.35;4.63;;;;;;;10.06;100.00;102442.97;5058307;22;20239;-49
2023/05/30 04:54:33;;;;;;;17.88;5.07;;;;;;;10.14;100.00;102437.53;5038703;28;20299;-50
2023/05/30 04:56:58;;;;;;;20.65;4.35;;;;;;;10.06;100.00;102431.38;5049788;28;20263;-50
2023/05/30 04:59:24;;;;;;;15.15;5.13;;;;;;;10.19;100.00;102437.47;5041437;28;20183;-50
2023/05/30 05:01:52;;;;;;;14.32;3.90;;;;;;;10.26;100.00;102439.19;5037892;28;20184;-53
2023/05/30 05:04:17;;;;;;;20.70;4.72;;;;;;;10.33;100.00;102434.69;5048758;28;20190;-50
2023/05/30 05:06:43;;;;;;;16.98;4.15;;;;;;;10.22;100.00;102446.38;5035982;28;20540;-51
2023/05/30 05:09:10;;;;;;;13.95;4.47;;;;;;;10.26;100.00;102447.22;5039868;28;20619;-49
2023/05/30 05:11:36;;;;;;;14.75;4.13;;;;;;;10.32;100.00;102439.16;5038744;28;20207;-48
2023/05/30 05:14:02;;;;;;;17.02;4.38;;;;;;;10.24;100.00;102436.53;5041547;28;20179;-49
2023/05/30 05:16:27;;;;;;;13.85;4.30;;;;;;;10.27;100.00;102438.28;5047497;28;20681;-50
2023/05/30 05:18:53;;;;;;;11.30;3.70;;;;;;;10.28;100.00;102440.06;5036907;28;20175;-48
2023/05/30 05:21:18;;;;;;;18.75;4.03;;;;;;;10.27;100.00;102449.88;5042914;28;20576;-49
2023/05/30 05:23:44;;;;;;;16.33;4.50;;;;;;;10.38;100.00;102451.59;5039251;28;20293;-49
2023/05/30 05:26:10;;;;;;;15.00;4.07;;;;;;;10.34;100.00;102452.53;5035210;28;20245;-51
2023/05/30 05:28:35;;;;;;;15.65;3.63;;;;;;;10.35;100.00;102443.59;5042160;28;20184;-51
2023/05/30 05:31:01;;;;;;;11.73;3.70;;;;;;;10.35;100.00;102457.00;5045097;28;20184;-48
2023/05/30 05:33:27;;;;;;;13.45;4.05;;;;;;;10.44;100.00;102455.09;5037939;28;20258;-49
2023/05/30 05:35:52;;;;;;;14.90;4.43;;;;;;;10.39;100.00;102450.69;5037261;28;20203;-49
2023/05/30 05:38:17;;;;;;;10.60;4.13;;;;;;;10.40;100.00;102460.50;5044837;28;20187;-51
2023/05/30 05:40:43;;;;;;;14.27;3.95;;;;;;;10.54;100.00;102463.91;5048080;28;20918;-49
2023/05/30 05:43:09;;;;;;;13.02;3.70;;;;;;;10.52;100.00;102469.28;5042126;28;20229;-47
2023/05/30 05:45:35;;;;;;;9.02;3.75;;;;;;;10.53;100.00;102467.50;5037359;28;20242;-54
2023/05/30 05:48:01;;;;;;;15.48;4.70;;;;;;;10.56;100.00;102471.91;5037173;28;20202;-55
2023/05/30 05:50:26;;;;;;;11.40;3.72;;;;;;;10.52;100.00;102481.81;5037080;28;20282;-54
2023/05/30 05:52:52;;;;;;;13.55;4.20;;;;;;;10.59;100.00;102472.78;5037852;28;20594;-56
2023/05/30 05:55:17;;;;;;;14.23;4.60;;;;;;;10.56;100.00;102486.22;5038074;28;20202;-54
2023/05/30 05:57:43;;;;;;;16.52;4.40;;;;;;;10.55;100.00;102487.13;5040473;28;20186;-53
2023/05/30 06:00:09;;;;;;;14.88;5.15;;;;;;;10.46;100.00;102484.56;5039768;28;20192;-54
2023/05/30 06:02:38;;;;;;;23.83;4.50;;;;;;;10.40;100.00;102496.22;5040552;28;20202;-54
2023/05/30 06:05:06;;;;;;;15.95;4.55;;;;;;;10.51;100.00;102488.06;5036254;28;20277;-53
2023/05/30 06:07:32;;;;;;;11.43;4.07;;;;;;;10.50;100.00;102491.66;5038028;28;20317;-56
2023/05/30 06:09:57;;;;;;;12.73;4.47;;;;;;;10.47;100.00;102492.59;5040428;28;20238;-54
2023/05/30 06:12:23;;;;;;;15.50;4.50;;;;;;;10.57;100.00;102485.31;5039689;28;20206;-52
2023/05/30 06:14:49;;;;;;;17.13;4.88;;;;;;;10.53;100.00;102488.94;5040719;28;20621;-54
2023/05/30 06:17:14;;;;;;;17.38;4.70;;;;;;;10.59;100.00;102483.50;5038170;28;20167;-51
2023/05/30 06:19:40;;;;;;;16.58;4.00;;;;;;;10.69;100.00;102487.88;5036752;28;20269;-51
2023/05/30 06:22:06;;;;;;;17.95;4.35;;;;;;;10.84;100.00;102489.44;5036133;28;20256;-51
2023/05/30 06:24:31;;;;;;;17.15;4.68;;;;;;;10.85;100.00;102483.19;5040468;28;20188;-52
2023/05/30 06:26:56;;;;;;;16.88;4.05;;;;;;;10.81;100.00;102484.13;5037766;28;20266;-50
2023/05/30 06:29:22;;;;;;;18.58;4.40;;;;;;;10.80;100.00;102481.47;5034381;28;20175;-53
2023/05/30 06:31:47;;;;;;;17.92;4.97;;;;;;;11.01;100.00;102482.97;5034563;28;20245;-52
2023/05/30 06:34:13;;;;;;;14.73;3.83;;;;;;;10.90;100.00;102484.00;5032346;28;20633;-50
2023/05/30 06:36:38;;;;;;;11.43;4.05;;;;;;;10.90;100.00;102484.00;5035717;28;20254;-50
2023/05/30 06:39:04;;;;;;;14.57;4.35;;;;;;;10.96;100.00;102477.69;5036686;28;20336;-53
2023/05/30 06:41:29;;;;;;;10.68;4.00;;;;;;;10.84;100.00;102478.72;5038370;28;20175;-51
2023/05/30 06:43:55;;;;;;;18.52;4.80;;;;;;;11.00;100.00;102482.09;5034896;28;20186;-51
2023/05/30 06:46:20;;;;;;;11.25;3.97;;;;;;;11.17;100.00;102483.66;5038454;28;20215;-50
2023/05/30 06:48:46;;;;;;;14.23;4.38;;;;;;;11.17;100.00;102470.25;5037028;28;20258;-52
2023/05/30 06:51:12;;;;;;;10.75;4.30;;;;;;;11.38;100.00;102480.66;5033544;28;20196;-52
2023/05/30 06:53:37;;;;;;;13.00;3.88;;;;;;;11.17;100.00;102489.00;5038145;28;20268;-51
2023/05/30 06:56:04;;;;;;;11.73;3.90;;;;;;;11.16;100.00;102479.22;5043173;28;20187;-51
2023/05/30 06:58:29;;;;;;;9.82;3.70;;;;;;;11.22;100.00;102482.69;5040107;28;20184;-50
2023/05/30 07:00:55;;;;;;;13.35;4.03;;;;;;;11.27;100.00;102482.63;5049474;28;20564;-51
2023/05/30 07:03:20;;;;;;;12.02;3.30;;;;;;;11.47;100.00;102480.50;5040912;28;20294;-52
2023/05/30 07:05:46;;;;;;;16.88;4.43;;;;;;;11.33;100.00;102495.94;5041732;28;20211;-51
2023/05/30 07:08:11;;;;;;;11.93;4.82;;;;;;;11.38;100.00;102495.88;5046705;28;20937;-52
2023/05/30 07:10:37;;;;;;;15.20;3.85;;;;;;;11.52;100.00;102485.81;5042583;28;20254;-53
2023/05/30 07:13:02;;;;;;;10.93;3.65;;;;;;;11.66;100.00;102490.97;5046789;28;20221;-52
2023/05/30 07:15:31;;;;;;;13.88;4.10;;;;;;;11.66;100.00;102499.03;5047449;28;20191;-52
2023/05/30 07:17:56;;;;;;;9.35;3.75;;;;;;;11.77;100.00;102499.75;5040855;28;20233;-52
2023/05/30 07:20:23;;;;;;;8.35;3.17;;;;;;;11.95;100.00;102503.94;5044331;28;20182;-51
2023/05/30 07:22:51;;;;;;;13.32;3.50;;;;;;;11.65;100.00;102497.25;5041300;28;20381;-51
2023/05/30 07:25:17;;;;;;;11.98;3.35;;;;;;;11.87;100.00;102498.69;5041936;28;20199;-50
2023/05/30 07:27:42;;;;;;;11.13;3.35;;;;;;;11.95;100.00;102499.44;5044558;28;20263;-53
2023/05/30 07:30:08;;;;;;;7.63;3.38;;;;;;;11.88;100.00;102496.91;5051059;28;20427;-53
2023/05/30 07:32:34;;;;;;;8.55;3.50;;;;;;;11.94;100.00;102497.69;5044432;28;20213;-52
2023/05/30 07:34:59;;;;;;;9.02;3.50;;;;;;;12.09;100.00;102506.38;5048416;28;20546;-52
2023/05/30 07:37:25;;;;;;;10.60;3.72;;;;;;;12.13;100.00;102491.97;5044460;28;20175;-51
2023/05/30 07:39:51;;;;;;;11.88;3.30;;;;;;;12.09;100.00;102495.63;5048478;28;20660;-53
2023/05/30 07:42:16;;;;;;;14.63;3.88;;;;;;;12.03;100.00;102491.28;5049114;28;20206;-53
2023/05/30 07:44:45;;;;;;;9.38;3.28;;;;;;;11.98;99.56;102497.63;5046045;28;20200;-53
2023/05/30 07:47:11;;;;;;;11.95;3.10;;;;;;;12.12;99.38;102498.28;5032618;28;20655;-50
2023/05/30 07:49:36;;;;;;;9.07;3.17;;;;;;;11.84;98.37;102506.78;5045464;28;20245;-50
2023/05/30 07:52:02;;;;;;;7.32;3.33;;;;;;;12.20;98.29;102509.78;5048469;28;20203;-52
2023/05/30 07:54:27;;;;;;;9.18;3.30;;;;;;;12.31;97.33;102507.78;5042312;28;20209;-53
2023/05/30 07:56:53;;;;;;;10.25;3.58;;;;;;;12.26;96.91;102506.97;5043063;28;20359;-52
2023/05/30 07:59:19;;;;;;;9.80;3.00;;;;;;;12.51;96.95;102498.47;5042981;28;20711;-52
2023/05/30 08:01:46;;;;;;;7.32;3.20;;;;;;;11.79;95.75;102507.78;5042043;28;20288;-54
2023/05/30 08:04:12;;;;;;;9.05;3.10;;;;;;;11.86;96.03;102512.13;5040177;28;20184;-53
2023/05/30 08:06:37;;;;;;;11.63;2.97;;;;;;;11.99;96.23;102510.16;5031308;28;20203;-54
2023/05/30 08:09:04;;;;;;;7.18;3.08;;;;;;;12.09;96.45;102509.97;5038189;28;20188;-53
2023/05/30 08:11:29;;;;;;;9.35;3.33;;;;;;;11.77;95.64;102510.47;5038755;28;20196;-51
2023/05/30 08:13:55;;;;;;;10.35;3.20;;;;;;;11.72;95.29;102515.06;5040424;28;20191;-53
2023/05/30 08:16:21;;;;;;;5.90;2.58;;;;;;;12.13;95.33;102514.38;5039010;28;20207;-53
2023/05/30 08:18:47;;;;;;;7.00;2.83;;;;;;;12.35;94.86;102519.34;5039110;28;20264;-54
2023/05/30 08:21:13;;;;;;;8.60;2.83;;;;;;;12.21;93.94;102516.91;5040751;28;20272;-51
2023/05/30 08:23:39;;;;;;;7.47;2.88;;;;;;;11.91;93.27;102508.47;5043312;28;20516;-53
2023/05/30 08:26:06;;;;;;;11.23;3.17;;;;;;;12.31;94.00;102513.16;5041190;28;20211;-51
2023/05/30 08:28:32;;;;;;;6.55;2.63;;;;;;;12.55;93.71;102516.28;5040121;28;20240;-53
2023/05/30 08:30:58;;;;;;;8.32;3.15;;;;;;;12.03;93.09;102531.56;5029548;28;20191;-52
2023/05/30 08:33:25;;;;;;;9.13;2.60;;;;;;;11.79;93.23;102519.41;5040415;28;20215;-52
2023/05/30 08:35:51;;;;;;;9.23;2.70;;;;;;;11.98;93.24;102525.38;5037858;28;20238;-54
2023/05/30 08:38:16;;;;;;;6.32;2.45;;;;;;;11.89;93.07;102534.47;5036888;28;20559;-51
2023/05/30 08:40:44;;;;;;;5.05;2.72;;;;;;;12.05;93.47;102528.88;5038502;28;20552;-52
2023/05/30 08:43:10;;;;;;;9.45;2.95;;;;;;;11.90;93.23;102547.00;5037919;28;20283;-53
2023/05/30 08:45:36;;;;;;;8.57;2.80;;;;;;;12.03;93.69;102533.38;5042300;28;20302;-52
2023/05/30 08:48:04;;;;;;;7.22;2.70;;;;;;;11.94;93.42;102548.72;5040689;28;20559;-54
2023/05/30 08:50:31;;;;;;;8.65;3.13;;;;;;;12.00;93.62;102538.78;5035312;28;20184;-54
2023/05/30 08:53:06;;;;;;;5.55;2.70;;;;;;;11.82;93.67;102548.88;5041017;28;20998;-52
2023/05/30 08:55:39;;;;;;;4.85;3.13;;;;;;;11.85;93.75;102545.25;5036130;28;20388;-53
2023/05/30 08:58:24;;;;;;;5.95;2.88;;;;;;;11.91;93.50;102542.50;5040624;28;20567;-52
2023/05/30 09:00:52;;;;;;;4.55;2.50;;;;;;;11.88;93.46;102543.44;5043970;28;20281;-54
2023/05/30 09:03:18;;;;;;;6.63;2.85;;;;;;;11.94;93.43;102551.41;5053184;28;20526;-51
2023/05/30 09:05:48;;;;;;;7.63;2.72;;;;;;;11.92;93.38;102545.19;5041496;28;20209;-52
2023/05/30 09:08:16;;;;;;;5.80;2.83;;;;;;;11.98;93.59;102546.84;5045411;28;20265;-52
2023/05/30 09:10:50;;;;;;;4.65;2.45;;;;;;;12.04;92.98;102556.63;5044423;28;20548;-53
2023/05/30 09:13:16;;;;;;;5.30;2.70;;;;;;;12.00;92.99;102550.41;5042509;28;20194;-51
2023/05/30 09:15:43;;;;;;;11.63;3.45;;;;;;;12.05;93.29;102553.03;5039353;28;20219;-53
2023/05/30 09:18:09;;;;;;;9.18;2.92;;;;;;;12.04;93.27;102562.88;5043164;28;20195;-53
2023/05/30 09:20:38;;;;;;;6.00;3.03;;;;;;;12.04;93.46;102567.38;5044453;28;20282;-53
2023/05/30 09:23:04;;;;;;;8.20;2.85;;;;;;;12.10;93.87;102568.16;5035280;28;20204;-51
2023/05/30 09:25:42;;;;;;;9.43;3.10;;;;;;;12.08;93.96;102569.09;5036494;28;20310;-51
2023/05/30 09:28:08;;;;;;;9.23;2.80;;;;;;;12.04;93.60;102564.69;5042428;28;20203;-52
2023/05/30 09:30:33;;;;;;;9.70;3.13;;;;;;;11.98;93.64;102568.34;5038385;28;20200;-52
2023/05/30 09:33:00;;;;;;;9.30;3.20;;;;;;;12.01;93.64;102573.69;5036497;28;20211;-51
2023/05/30 09:35:26;;;;;;;6.57;2.88;;;;;;;12.05;93.78;102579.91;5038587;28;20242;-51
2023/05/30 09:37:51;;;;;;;12.45;3.40;;;;;;;12.23;94.11;102579.59;5034712;28;20220;-52
2023/05/30 09:40:16;;;;;;;8.82;2.92;;;;;;;12.30;93.77;102573.19;5034891;28;20228;-52
2023/05/30 09:42:43;;;;;;;6.53;2.85;;;;;;;12.20;93.85;102568.00;5036082;28;20542;-53
2023/05/30 09:45:14;;;;;;;6.47;2.80;;;;;;;12.17;94.17;102579.69;5038585;28;20694;-53
2023/05/30 09:47:44;;;;;;;8.10;3.05;;;;;;;12.01;93.56;102579.06;5041586;28;20203;-53
2023/05/30 09:50:14;;;;;;;9.00;3.83;;;;;;;12.09;94.05;102576.22;5036351;28;20190;-53
2023/05/30 09:52:41;;;;;;;7.50;3.30;;;;;;;12.00;94.59;102577.28;5034856;28;20264;-50
2023/05/30 09:55:13;;;;;;;6.47;2.97;;;;;;;12.15;95.34;102585.06;5038141;28;20580;-51
2023/05/30 09:57:40;;;;;;;12.18;3.35;;;;;;;12.15;95.05;102582.38;5037058;28;20199;-53
2023/05/30 10:00:15;;;;;;;8.50;3.22;;;;;;;12.30;94.83;102583.06;5039089;28;20207;-51
2023/05/30 10:02:43;;;;;;;10.82;2.78;;;;;;;12.44;94.33;102581.03;5038342;28;20625;-51
2023/05/30 10:05:20;;;;;;;9.93;3.38;;;;;;;12.34;94.23;102582.09;5035628;28;20216;-50
2023/05/30 10:07:51;;;;;;;5.40;2.95;;;;;;;12.25;93.77;102577.75;5041003;28;20537;-51
2023/05/30 10:10:18;;;;;;;6.88;3.10;;;;;;;12.21;93.88;102576.03;5035099;28;20302;-53
2023/05/30 10:12:55;;;;;;;9.07;3.33;;;;;;;12.27;93.84;102577.75;5045155;28;20330;-50
2023/05/30 10:15:23;;;;;;;5.70;2.85;;;;;;;12.38;94.51;102577.56;5037630;28;20261;-50
2023/05/30 10:18:08;;;;;;;7.90;3.00;;;;;;;12.37;94.33;102582.03;5037574;28;20198;-52
2023/05/30 10:20:37;;;;;;;9.80;2.85;;;;;;;12.36;93.83;102574.91;5038701;28;20218;-51
2023/05/30 10:23:06;;;;;;;8.43;2.75;;;;;;;12.44;93.98;102588.19;5040323;28;20271;-52
2023/05/30 10:25:35;;;;;;;7.85;3.10;;;;;;;12.32;93.66;102584.81;5036167;28;20725;-53
2023/05/30 10:28:03;;;;;;;7.22;2.67;;;;;;;12.59;94.09;102595.97;5036681;28;20672;-50
2023/05/30 10:30:31;;;;;;;5.70;2.72;;;;;;;12.57;93.71;102590.66;5046398;28;20187;-51
2023/05/30 10:33:04;;;;;;;7.63;2.80;;;;;;;12.50;93.31;102593.44;5037898;28;20682;-51
2023/05/30 10:35:31;;;;;;;7.30;2.75;;;;;;;12.42;93.43;102592.69;5037970;28;20211;-51
2023/05/30 10:37:57;;;;;;;7.25;2.80;;;;;;;12.29;93.59;102587.56;5037161;28;20183;-52
2023/05/30 10:40:30;;;;;;;9.15;3.03;;;;;;;12.65;93.92;102586.91;5037871;28;20183;-51
2023/05/30 10:43:13;;;;;;;7.85;2.67;;;;;;;12.47;93.47;102605.16;5033619;28;20238;-52
2023/05/30 10:45:54;;;;;;;8.48;3.42;;;;;;;12.58;93.23;102594.22;5036802;28;20213;-53
2023/05/30 10:48:29;;;;;;;7.80;2.85;;;;;;;12.42;92.97;102587.31;5036705;28;20187;-53
2023/05/30 10:50:59;;;;;;;7.35;3.20;;;;;;;12.52;92.90;102589.81;5060022;22;20222;-45
2023/05/30 10:53:25;;;;;;;11.35;3.42;;;;;;;12.50;93.17;102590.75;5063234;28;20755;-46
2023/05/30 10:55:50;;;;;;;8.07;3.20;;;;;;;12.60;92.64;102583.44;5062751;28;20203;-47
2023/05/30 10:58:41;;;;;;;8.05;2.97;;;;;;;12.64;92.37;102579.75;5056481;28;20179;-46
2023/05/30 11:01:30;;;;;;;6.20;2.88;;;;;;;12.69;92.47;102577.88;5056750;28;20174;-46
2023/05/30 11:04:07;;;;;;;10.02;3.40;;;;;;;12.93;92.25;102579.19;5056723;28;20179;-46
2023/05/30 11:06:35;;;;;;;8.73;3.20;;;;;;;12.91;92.00;102564.91;5052918;28;20229;-46
2023/05/30 11:09:19;;;;;;;10.48;3.03;;;;;;;13.05;91.49;102564.59;5058224;28;20195;-46
2023/05/30 11:12:06;;;;;;;9.23;3.55;;;;;;;12.96;91.37;102576.44;5051632;28;20697;-46
2023/05/30 11:14:34;;;;;;;14.95;3.53;;;;;;;12.72;91.19;102578.69;5056457;28;20660;-44
2023/05/30 11:17:02;;;;;;;10.30;3.20;;;;;;;12.86;91.43;102585.63;5055790;28;20189;-45
2023/05/30 11:19:58;;;;;;;8.63;3.50;;;;;;;13.01;90.64;102570.97;5058309;28;20273;-47